Time;durP1;ratioP1;P1;durP2;ratioP2;P2;SDS_P1;SDS_P2;PMS_P1;PMS_P2;Temp;Humidity;BMP_temperature;BMP_pressure;BME280_temperature;BME280_humidity;BME280_pressure;Samples;Min_cycle;Max_cycle;Signal;HPM_P1;HPM_P2
2021/04/17 00:02:05;;;;;;;12.52;3.17;;;;;;;22.88;35.84;99955.16;4482683;32;33612;-58
2021/04/17 00:04:33;;;;;;;9.00;2.87;;;;;;;22.86;35.96;99951.84;4483732;32;34543;-59
2021/04/17 00:07:00;;;;;;;9.57;3.70;;;;;;;22.87;35.99;99954.34;4482522;32;34179;-59
2021/04/17 00:09:28;;;;;;;8.43;3.30;;;;;;;22.86;36.11;99951.84;4467271;32;34394;-59
2021/04/17 00:11:56;;;;;;;7.72;2.85;;;;;;;22.85;36.12;99947.47;4473323;32;34140;-57
2021/04/17 00:14:26;;;;;;;9.30;3.00;;;;;;;22.85;36.09;99947.47;4484121;32;33544;-58
2021/04/17 00:17:10;;;;;;;8.07;2.90;;;;;;;22.84;36.11;99948.50;4482565;32;33353;-60
2021/04/17 00:19:38;;;;;;;10.52;2.75;;;;;;;22.85;36.09;99944.75;4468713;32;32761;-59
2021/04/17 00:22:05;;;;;;;8.38;3.62;;;;;;;22.84;36.18;99943.06;4476370;32;33015;-58
2021/04/17 00:24:33;;;;;;;7.75;3.03;;;;;;;22.83;36.33;99944.94;4482146;32;33805;-59
2021/04/17 00:27:01;;;;;;;6.60;2.97;;;;;;;22.84;36.41;99932.16;4482268;32;33275;-59
2021/04/17 00:29:30;;;;;;;7.78;2.90;;;;;;;22.83;36.37;99934.06;4484004;32;34030;-56
2021/04/17 00:31:58;;;;;;;8.50;3.33;;;;;;;22.82;36.40;99931.56;4483966;31;32297;-57
2021/04/17 00:34:26;;;;;;;6.93;2.80;;;;;;;22.81;36.37;99922.56;4473833;32;33929;-60
2021/04/17 00:36:53;;;;;;;6.62;3.20;;;;;;;22.81;36.44;99922.56;4483804;32;33441;-59
2021/04/17 00:39:20;;;;;;;14.73;2.87;;;;;;;22.81;36.53;99917.13;4483803;32;33818;-57
2021/04/17 00:41:47;;;;;;;6.57;2.60;;;;;;;22.82;36.44;99915.25;4483914;32;33881;-57
2021/04/17 00:44:14;;;;;;;6.65;2.33;;;;;;;22.81;36.52;99913.59;4483721;32;32224;-58
2021/04/17 00:46:41;;;;;;;9.38;3.35;;;;;;;22.80;36.52;99911.88;4468369;32;33530;-57
2021/04/17 00:49:09;;;;;;;10.02;2.60;;;;;;;22.80;36.73;99911.88;4480840;32;34633;-58
2021/04/17 00:51:36;;;;;;;6.70;2.90;;;;;;;22.80;36.78;99911.88;4483373;32;33903;-54
2021/04/17 00:54:04;;;;;;;6.47;2.70;;;;;;;22.79;36.79;99911.06;4483127;31;32575;-57
2021/04/17 00:56:32;;;;;;;9.20;2.53;;;;;;;22.77;36.87;99907.75;4477269;32;33492;-53
2021/04/17 00:58:59;;;;;;;6.90;2.37;;;;;;;22.79;36.79;99916.50;4473678;32;33335;-57
2021/04/17 01:01:26;;;;;;;6.28;2.40;;;;;;;22.79;36.78;99907.50;4483948;32;34620;-58
2021/04/17 01:03:57;;;;;;;7.75;2.60;;;;;;;22.79;36.84;99912.94;4477045;31;32016;-59
2021/04/17 01:06:31;;;;;;;6.85;2.30;;;;;;;22.77;36.87;99915.06;4467082;32;33122;-58
2021/04/17 01:09:08;;;;;;;7.53;2.80;;;;;;;22.77;36.92;99907.75;4467954;32;33389;-58
2021/04/17 01:12:12;;;;;;;8.00;2.62;;;;;;;22.77;36.88;99901.47;4468054;32;33995;-57
2021/04/17 01:14:40;;;;;;;6.60;2.67;;;;;;;22.78;36.86;99909.41;4464480;32;33176;-58
2021/04/17 01:17:07;;;;;;;10.52;3.50;;;;;;;22.76;36.83;99906.09;4467667;32;33889;-57
2021/04/17 01:19:42;;;;;;;7.50;3.03;;;;;;;22.76;36.89;99903.34;4469902;32;33722;-58
2021/04/17 01:22:11;;;;;;;5.40;2.20;;;;;;;22.76;36.95;99906.09;4482551;32;33826;-59
2021/04/17 01:24:39;;;;;;;6.50;2.70;;;;;;;22.74;36.97;99908.16;4483822;32;33930;-58
2021/04/17 01:27:06;;;;;;;7.60;2.22;;;;;;;22.74;37.04;99904.63;4483870;32;32154;-59
2021/04/17 01:29:35;;;;;;;8.90;2.90;;;;;;;22.74;37.08;99905.44;4482624;32;32350;-58
2021/04/17 01:32:03;;;;;;;5.82;2.45;;;;;;;22.75;37.09;99906.28;4469582;32;33910;-59
2021/04/17 01:34:30;;;;;;;6.87;2.67;;;;;;;22.75;37.03;99898.12;4474735;32;34851;-57
2021/04/17 01:36:58;;;;;;;7.60;2.50;;;;;;;22.76;37.01;99905.25;4479640;32;33250;-59
2021/04/17 01:39:26;;;;;;;5.28;2.28;;;;;;;22.76;36.96;99902.53;4468530;32;34749;-56
2021/04/17 01:42:03;;;;;;;7.87;2.45;;;;;;;22.74;37.02;99902.72;4469522;32;33927;-59
2021/04/17 01:44:33;;;;;;;6.35;2.22;;;;;;;22.75;36.91;99900.84;4482183;32;33543;-57
2021/04/17 01:47:01;;;;;;;6.65;2.58;;;;;;;22.74;36.90;99894.56;4467929;32;33438;-56
2021/04/17 01:49:30;;;;;;;7.00;2.50;;;;;;;22.75;36.83;99892.69;4467639;32;33535;-58
2021/04/17 01:51:58;;;;;;;5.78;2.30;;;;;;;22.75;36.88;99892.69;4466442;32;34223;-53
2021/04/17 01:54:28;;;;;;;7.62;2.47;;;;;;;22.75;36.89;99881.78;4467924;32;32090;-58
2021/04/17 01:57:02;;;;;;;9.18;2.67;;;;;;;22.73;36.89;99879.31;4465486;32;33171;-58
2021/04/17 01:59:31;;;;;;;7.47;2.28;;;;;;;22.74;36.94;99882.84;4467555;32;33675;-57
2021/04/17 02:01:58;;;;;;;7.33;2.23;;;;;;;22.74;36.96;99888.28;4466341;32;34787;-57
2021/04/17 02:04:26;;;;;;;5.47;2.08;;;;;;;22.74;36.92;99886.41;4466395;32;34537;-56
2021/04/17 02:06:53;;;;;;;6.45;2.00;;;;;;;22.73;36.93;99879.31;4467769;32;31999;-59
2021/04/17 02:09:20;;;;;;;6.10;2.33;;;;;;;22.72;37.07;99883.09;4467067;32;33916;-57
2021/04/17 02:11:47;;;;;;;6.20;2.30;;;;;;;22.71;37.07;99884.16;4467759;32;33910;-58
2021/04/17 02:14:14;;;;;;;6.45;2.55;;;;;;;22.70;37.09;99882.47;4467488;32;33723;-58
2021/04/17 02:17:08;;;;;;;7.70;2.42;;;;;;;22.71;37.14;99880.56;4466223;32;33367;-56
2021/04/17 02:19:57;;;;;;;5.87;2.22;;;;;;;22.70;37.11;99868.03;4443253;32;32039;-56
2021/04/17 02:22:24;;;;;;;7.85;2.70;;;;;;;22.69;37.13;99864.47;4467417;32;33655;-55
2021/04/17 02:24:52;;;;;;;7.03;2.55;;;;;;;22.67;37.12;99862.00;4453235;32;34702;-55
2021/04/17 02:27:19;;;;;;;7.40;2.10;;;;;;;22.68;37.21;99865.53;4465982;32;33132;-56
2021/04/17 02:29:53;;;;;;;5.85;2.12;;;;;;;22.68;37.23;99860.09;4480172;32;33886;-57
2021/04/17 02:32:20;;;;;;;5.20;2.03;;;;;;;22.67;37.17;99864.72;4482925;32;33931;-57
2021/04/17 02:34:47;;;;;;;10.40;2.40;;;;;;;22.67;37.22;99859.25;4482542;32;34509;-57
2021/04/17 02:37:14;;;;;;;6.55;2.33;;;;;;;22.66;37.25;99854.03;4482821;32;32322;-56
2021/04/17 02:39:41;;;;;;;4.97;2.37;;;;;;;22.65;37.23;99858.63;4479128;32;33516;-57
2021/04/17 02:42:09;;;;;;;6.03;1.92;;;;;;;22.65;37.24;99863.25;4466730;32;34183;-58
2021/04/17 02:44:37;;;;;;;7.15;2.30;;;;;;;22.65;37.24;99858.63;4467080;32;34258;-56
2021/04/17 02:47:04;;;;;;;6.85;2.50;;;;;;;22.65;37.28;99855.91;4467319;32;32387;-58
2021/04/17 02:49:31;;;;;;;5.75;2.53;;;;;;;22.65;37.25;99855.91;4466812;32;33534;-58
2021/04/17 02:51:58;;;;;;;7.00;2.58;;;;;;;22.64;37.32;99854.25;4466937;32;33770;-57
2021/04/17 02:54:25;;;;;;;6.40;2.08;;;;;;;22.64;37.34;99854.25;4466680;32;33894;-57
2021/04/17 02:56:53;;;;;;;7.28;2.40;;;;;;;22.63;37.27;99852.59;4466736;32;32573;-55
2021/04/17 02:59:20;;;;;;;6.80;2.62;;;;;;;22.62;37.35;99848.22;4466741;32;34626;-54
2021/04/17 03:01:47;;;;;;;4.60;2.12;;;;;;;22.63;37.27;99847.16;4466727;32;34655;-57
2021/04/17 03:04:14;;;;;;;5.03;2.10;;;;;;;22.62;37.41;99853.66;4466570;32;33846;-58
2021/04/17 03:06:41;;;;;;;6.78;2.15;;;;;;;22.62;37.41;99853.66;4466800;32;33328;-56
2021/04/17 03:09:08;;;;;;;4.30;1.83;;;;;;;22.61;37.31;99846.53;4468185;32;32787;-58
2021/04/17 03:11:35;;;;;;;9.00;2.03;;;;;;;22.61;37.41;99854.69;4468961;32;33655;-56
2021/04/17 03:14:02;;;;;;;4.25;1.90;;;;;;;22.61;37.47;99848.41;4469111;32;32326;-53
2021/04/17 03:16:29;;;;;;;7.05;2.03;;;;;;;22.62;37.50;99845.50;4468951;32;33320;-57
2021/04/17 03:18:56;;;;;;;7.75;1.95;;;;;;;22.62;37.47;99844.66;4468898;32;35339;-55
2021/04/17 03:21:23;;;;;;;6.37;2.42;;;;;;;22.60;37.52;99842.16;4468984;32;34807;-57
2021/04/17 03:23:51;;;;;;;6.47;2.42;;;;;;;22.62;37.43;99847.38;4469011;32;34131;-58
2021/04/17 03:26:18;;;;;;;4.93;2.00;;;;;;;22.60;37.50;99842.16;4468678;32;34255;-57
2021/04/17 03:28:45;;;;;;;4.85;2.20;;;;;;;22.60;37.50;99841.31;4475463;32;34584;-56
2021/04/17 03:31:12;;;;;;;6.40;2.37;;;;;;;22.59;37.52;99837.78;4484782;32;33766;-59
2021/04/17 03:33:39;;;;;;;3.95;1.90;;;;;;;22.58;37.57;99835.28;4484350;32;33797;-55
2021/04/17 03:36:06;;;;;;;6.10;1.95;;;;;;;22.59;37.53;99839.66;4484805;32;31970;-59
2021/04/17 03:38:33;;;;;;;4.53;1.87;;;;;;;22.58;37.57;99840.72;4484376;32;33805;-56
2021/04/17 03:41:01;;;;;;;5.18;2.03;;;;;;;22.56;37.58;99840.09;4471732;32;34003;-57
2021/04/17 03:43:29;;;;;;;5.72;2.03;;;;;;;22.56;37.62;99830.03;4468950;32;33706;-58
2021/04/17 03:45:56;;;;;;;4.78;2.05;;;;;;;22.57;37.61;99836.31;4478784;32;33149;-55
2021/04/17 03:48:23;;;;;;;4.43;2.03;;;;;;;22.57;37.69;99837.16;4484331;32;33456;-60
2021/04/17 03:50:50;;;;;;;4.87;2.10;;;;;;;22.57;37.74;99839.03;4483954;31;34038;-58
2021/04/17 03:53:17;;;;;;;5.25;1.87;;;;;;;22.56;37.78;99846.34;4482079;32;33861;-58
2021/04/17 03:55:45;;;;;;;4.62;1.80;;;;;;;22.57;37.91;99850.75;4474601;32;31473;-55
2021/04/17 03:58:12;;;;;;;6.30;2.10;;;;;;;22.56;37.68;99850.97;4474109;32;34679;-58
2021/04/17 04:00:39;;;;;;;6.32;1.85;;;;;;;22.56;37.81;99849.06;4468626;32;34449;-56
2021/04/17 04:03:06;;;;;;;3.72;2.05;;;;;;;22.56;37.75;99854.50;4483996;32;34149;-55
2021/04/17 04:05:33;;;;;;;7.50;1.80;;;;;;;22.56;37.69;99854.50;4484395;32;33537;-58
2021/04/17 04:08:00;;;;;;;3.58;1.50;;;;;;;22.55;37.71;99844.69;4484091;32;33477;-57
2021/04/17 04:10:28;;;;;;;5.25;2.20;;;;;;;22.56;37.68;99846.34;4483958;32;33925;-58
2021/04/17 04:12:55;;;;;;;3.80;1.90;;;;;;;22.56;37.76;99842.81;4484179;32;33016;-58
2021/04/17 04:15:22;;;;;;;4.37;1.67;;;;;;;22.55;37.78;99850.13;4468712;32;33374;-57
2021/04/17 04:17:49;;;;;;;5.57;2.03;;;;;;;22.55;37.78;99852.84;4468395;32;33850;-56
2021/04/17 04:20:16;;;;;;;4.68;2.25;;;;;;;22.54;37.83;99853.91;4467788;32;33887;-57
2021/04/17 04:22:43;;;;;;;4.32;1.80;;;;;;;22.55;37.86;99871.87;4468412;32;34693;-58
2021/04/17 04:25:11;;;;;;;3.47;1.77;;;;;;;22.54;37.82;99867.50;4468350;32;33392;-56
2021/04/17 04:27:38;;;;;;;3.35;1.60;;;;;;;22.54;37.91;99867.50;4468609;32;34754;-55
2021/04/17 04:30:07;;;;;;;4.30;1.70;;;;;;;22.54;37.82;99867.50;4468631;32;33525;-58
2021/04/17 04:32:34;;;;;;;5.75;2.20;;;;;;;22.55;37.87;99877.31;4473604;32;34306;-58
2021/04/17 04:35:02;;;;;;;5.78;1.65;;;;;;;22.54;37.81;99869.41;4472147;32;33074;-58
2021/04/17 04:37:29;;;;;;;5.07;2.20;;;;;;;22.53;37.90;99873.19;4469937;32;33507;-59
2021/04/17 04:39:56;;;;;;;6.70;1.83;;;;;;;22.53;37.94;99879.44;4478883;32;34854;-57
2021/04/17 04:42:23;;;;;;;4.70;1.85;;;;;;;22.54;37.84;99883.81;4468295;32;32049;-59
2021/04/17 04:44:50;;;;;;;4.47;1.90;;;;;;;22.53;37.93;99873.19;4471103;32;32372;-57
2021/04/17 04:47:17;;;;;;;5.18;1.75;;;;;;;22.54;37.92;99877.56;4474190;32;33929;-55
2021/04/17 04:49:44;;;;;;;4.78;1.85;;;;;;;22.54;37.95;99881.09;4478608;32;34025;-57
2021/04/17 04:52:12;;;;;;;4.75;1.83;;;;;;;22.53;38.02;99882.16;4472737;32;33917;-57
2021/04/17 04:54:39;;;;;;;4.75;1.85;;;;;;;22.53;37.98;99879.44;4483864;32;33513;-57
2021/04/17 04:57:06;;;;;;;4.78;1.80;;;;;;;22.53;37.94;99876.72;4477393;32;33644;-57
2021/04/17 04:59:33;;;;;;;2.78;1.67;;;;;;;22.54;37.88;99880.28;4468328;32;33491;-57
2021/04/17 05:02:01;;;;;;;3.83;1.52;;;;;;;22.54;37.95;99881.09;4468146;32;33913;-57
2021/04/17 05:04:29;;;;;;;6.15;1.80;;;;;;;22.54;37.99;99880.28;4468488;32;32153;-57
2021/04/17 05:06:56;;;;;;;6.68;1.92;;;;;;;22.53;38.09;99882.16;4467982;32;33339;-58
2021/04/17 05:09:23;;;;;;;8.57;2.10;;;;;;;22.54;38.14;99883.81;4467874;32;33351;-57
2021/04/17 05:11:50;;;;;;;9.30;1.67;;;;;;;22.54;37.99;99874.84;4467051;32;33532;-59
2021/04/17 05:14:17;;;;;;;4.62;1.90;;;;;;;22.54;38.11;99875.66;4467842;32;32564;-56
2021/04/17 05:16:44;;;;;;;3.55;1.62;;;;;;;22.54;38.00;99878.37;4467896;32;33881;-58
2021/04/17 05:19:12;;;;;;;4.60;1.70;;;;;;;22.55;37.91;99879.22;4468255;32;32838;-58
2021/04/17 05:21:39;;;;;;;6.00;1.83;;;;;;;22.54;37.96;99883.81;4468261;32;33943;-55
2021/04/17 05:24:06;;;;;;;5.28;1.73;;;;;;;22.54;38.01;99880.28;4468217;32;31609;-59
2021/04/17 05:26:33;;;;;;;6.40;1.92;;;;;;;22.54;37.90;99875.66;4468144;32;34074;-58
2021/04/17 05:29:01;;;;;;;8.40;2.05;;;;;;;22.53;38.04;99876.72;4468136;32;34024;-55
2021/04/17 05:31:29;;;;;;;4.90;1.50;;;;;;;22.54;38.02;99883.81;4466955;32;33935;-57
2021/04/17 05:33:56;;;;;;;4.12;1.62;;;;;;;22.55;37.96;99876.50;4467596;32;34214;-57
2021/04/17 05:36:24;;;;;;;4.12;1.77;;;;;;;22.55;37.96;99888.19;4467988;32;33654;-55
2021/04/17 05:38:53;;;;;;;7.50;2.00;;;;;;;22.54;37.97;99883.81;4467816;32;34475;-57
2021/04/17 05:41:25;;;;;;;7.53;2.00;;;;;;;22.53;38.01;99874.00;4482208;32;33823;-58
2021/04/17 05:43:52;;;;;;;5.53;1.80;;;;;;;22.54;37.90;99875.66;4483485;32;34354;-56
2021/04/17 05:46:19;;;;;;;3.62;1.60;;;;;;;22.55;37.89;99885.47;4478760;31;32108;-57
2021/04/17 05:48:46;;;;;;;3.83;1.92;;;;;;;22.54;37.90;99877.56;4483551;32;33797;-58
2021/04/17 05:51:14;;;;;;;2.62;1.50;;;;;;;22.53;37.90;99876.72;4483252;31;34627;-55
2021/04/17 05:53:41;;;;;;;3.33;1.73;;;;;;;22.54;37.83;99883.81;4483175;32;34145;-57
2021/04/17 05:56:08;;;;;;;3.67;1.50;;;;;;;22.54;37.94;99891.97;4483219;32;33854;-59
2021/04/17 05:58:36;;;;;;;4.60;1.67;;;;;;;22.55;37.94;99884.66;4483422;32;34268;-58
2021/04/17 06:01:03;;;;;;;12.48;2.08;;;;;;;22.54;37.90;99886.53;4483088;32;33587;-58
2021/04/17 06:03:31;;;;;;;5.28;1.95;;;;;;;22.54;37.91;99883.81;4483267;32;32618;-59
2021/04/17 06:05:58;;;;;;;2.95;1.48;;;;;;;22.54;37.85;99891.16;4483348;32;33541;-58
2021/04/17 06:08:25;;;;;;;6.12;1.80;;;;;;;22.54;37.93;99889.25;4482960;32;34759;-58
2021/04/17 06:10:52;;;;;;;3.45;1.60;;;;;;;22.54;38.01;99891.97;4483119;32;33645;-57
2021/04/17 06:13:19;;;;;;;3.95;1.60;;;;;;;22.54;37.91;99886.53;4483373;32;32081;-56
2021/04/17 06:15:46;;;;;;;4.40;1.85;;;;;;;22.54;37.85;99881.09;4482730;32;33628;-57
2021/04/17 06:18:13;;;;;;;3.67;1.60;;;;;;;22.53;37.89;99878.63;4482939;32;33686;-58
2021/04/17 06:20:40;;;;;;;4.22;1.90;;;;;;;22.54;37.88;99880.28;4482027;32;33699;-56
2021/04/17 06:23:07;;;;;;;4.68;2.10;;;;;;;22.53;38.01;99882.16;4483200;32;31725;-55
2021/04/17 06:25:35;;;;;;;3.40;1.48;;;;;;;22.52;38.07;99875.06;4483109;32;34253;-58
2021/04/17 06:28:02;;;;;;;4.57;1.65;;;;;;;22.53;37.96;99879.44;4483051;32;34901;-57
2021/04/17 06:30:29;;;;;;;4.32;1.50;;;;;;;22.53;37.97;99879.44;4482429;31;33409;-59
2021/04/17 06:33:04;;;;;;;4.43;1.80;;;;;;;22.53;38.00;99878.63;4483006;32;32307;-59
2021/04/17 06:35:31;;;;;;;6.50;1.60;;;;;;;22.53;37.89;99868.56;4482751;32;33942;-58
2021/04/17 06:37:58;;;;;;;3.97;1.50;;;;;;;22.54;38.01;99874.84;4482796;32;34873;-56
2021/04/17 06:40:26;;;;;;;3.90;1.62;;;;;;;22.53;38.03;99879.44;4474189;32;33727;-58
2021/04/17 06:42:52;;;;;;;4.43;1.80;;;;;;;22.52;38.12;99879.63;4467432;32;32295;-55
2021/04/17 06:45:21;;;;;;;4.65;1.67;;;;;;;22.52;38.02;99880.50;4469744;32;33931;-57
2021/04/17 06:47:48;;;;;;;6.10;1.60;;;;;;;22.52;38.01;99875.06;4485229;32;33005;-58
2021/04/17 06:53:06;;;;;;;9.38;3.20;;;;;;;22.52;38.14;99883.22;4484864;32;34047;-57
2021/04/17 06:55:34;;;;;;;10.77;6.53;;;;;;;22.53;37.57;99876.72;4484921;31;32186;-57
2021/04/17 06:58:02;;;;;;;14.25;5.45;;;;;;;22.50;36.33;99866.28;4484908;32;33614;-58
2021/04/17 07:00:29;;;;;;;14.30;5.87;;;;;;;22.47;36.94;99874.03;4484663;32;33993;-57
2021/04/17 07:02:58;;;;;;;11.48;5.50;;;;;;;22.45;36.97;99876.16;4484552;32;34308;-52
2021/04/17 07:05:25;;;;;;;30.45;9.80;;;;;;;22.44;36.98;99878.03;4485007;32;33023;-58
2021/04/17 07:07:52;;;;;;;32.67;8.55;;;;;;;22.44;36.71;99875.31;4484766;32;33640;-58
2021/04/17 07:10:19;;;;;;;29.40;8.55;;;;;;;22.44;36.80;99874.47;4484522;32;32659;-58
2021/04/17 07:12:46;;;;;;;48.30;10.73;;;;;;;22.44;36.61;99872.59;4484755;32;33461;-59
2021/04/17 07:15:14;;;;;;;47.40;9.43;;;;;;;22.42;36.43;99877.41;4483286;32;33158;-57
2021/04/17 07:17:41;;;;;;;38.17;8.60;;;;;;;22.43;36.46;99870.94;4484397;32;33649;-57
2021/04/17 07:20:15;;;;;;;42.13;8.75;;;;;;;22.42;36.42;99872.78;4484875;32;32746;-55
2021/04/17 07:22:42;;;;;;;27.08;7.53;;;;;;;22.41;36.52;99871.13;4484501;31;32160;-59
2021/04/17 07:25:10;;;;;;;25.48;7.78;;;;;;;22.42;36.54;99877.41;4484493;32;33670;-56
2021/04/17 07:27:49;;;;;;;33.20;8.25;;;;;;;22.42;36.53;99878.22;4484537;32;34594;-56
2021/04/17 07:30:16;;;;;;;25.05;7.35;;;;;;;22.41;36.56;99871.13;4484367;32;32931;-59
2021/04/17 07:32:47;;;;;;;27.83;7.28;;;;;;;22.42;36.55;99872.78;4484658;31;32719;-60
2021/04/17 07:35:16;;;;;;;26.60;7.15;;;;;;;22.41;36.59;99868.41;4484415;32;33624;-59
2021/04/17 07:37:45;;;;;;;17.83;6.55;;;;;;;22.41;36.63;99871.13;4484432;32;34064;-58
2021/04/17 07:40:20;;;;;;;19.67;5.82;;;;;;;22.41;36.64;99864.87;4477570;32;34700;-58
2021/04/17 07:42:57;;;;;;;25.98;6.43;;;;;;;22.41;36.69;99862.97;4468703;32;34167;-58
2021/04/17 07:45:24;;;;;;;20.77;6.40;;;;;;;22.42;36.64;99867.34;4472570;32;32118;-58
2021/04/17 07:47:53;;;;;;;20.20;6.18;;;;;;;22.42;36.67;99866.53;4471668;32;33981;-58
2021/04/17 07:50:20;;;;;;;25.10;7.10;;;;;;;22.41;36.72;99862.16;4483389;31;32192;-57
2021/04/17 07:52:48;;;;;;;18.48;6.20;;;;;;;22.41;36.75;99868.41;4484683;32;31845;-58
2021/04/17 07:55:17;;;;;;;18.10;5.70;;;;;;;22.41;36.77;99859.44;4473295;32;34072;-52
2021/04/17 07:57:46;;;;;;;24.80;6.55;;;;;;;22.41;36.60;99862.97;4468722;32;33797;-58
2021/04/17 08:00:17;;;;;;;21.92;5.87;;;;;;;22.40;36.49;99863.19;4468677;32;33825;-55
2021/04/17 08:02:47;;;;;;;25.37;6.28;;;;;;;22.40;36.60;99858.59;4468564;32;34249;-56
2021/04/17 08:05:15;;;;;;;14.63;5.60;;;;;;;22.40;36.59;99855.87;4476288;32;33673;-58
2021/04/17 08:07:42;;;;;;;20.30;6.00;;;;;;;22.40;36.62;99853.16;4482042;32;33875;-57
2021/04/17 08:10:10;;;;;;;18.17;5.25;;;;;;;22.40;36.61;99847.72;4482750;32;34052;-57
2021/04/17 08:12:38;;;;;;;16.02;5.47;;;;;;;22.40;36.60;99855.87;4483117;32;34312;-57
2021/04/17 08:15:11;;;;;;;18.25;5.85;;;;;;;22.39;36.66;99853.38;4475974;32;33870;-56
2021/04/17 08:17:39;;;;;;;18.12;5.05;;;;;;;22.39;36.67;99856.09;4468228;32;33735;-55
2021/04/17 08:20:12;;;;;;;21.42;4.82;;;;;;;22.40;36.67;99855.87;4468230;32;34406;-58
2021/04/17 08:22:39;;;;;;;20.12;5.10;;;;;;;22.39;36.73;99845.22;4468488;32;33287;-59
2021/04/17 08:25:07;;;;;;;12.35;4.70;;;;;;;22.40;36.72;99846.91;4466969;32;33517;-59
2021/04/17 08:27:34;;;;;;;21.45;4.93;;;;;;;22.39;36.75;99845.22;4467097;32;34823;-59
2021/04/17 08:30:09;;;;;;;14.15;4.85;;;;;;;22.38;36.77;99840.81;4468404;32;33781;-58
2021/04/17 08:32:40;;;;;;;14.65;4.53;;;;;;;22.39;36.78;99835.19;4467125;32;33168;-55
2021/04/17 08:35:14;;;;;;;11.43;4.35;;;;;;;22.38;36.76;99838.09;4473950;32;33771;-56
2021/04/17 08:37:51;;;;;;;23.40;5.07;;;;;;;22.37;36.82;99837.28;4468355;32;33912;-58
2021/04/17 08:40:38;;;;;;;13.48;4.00;;;;;;;22.39;36.80;99828.94;4475604;32;33761;-57
2021/04/17 08:43:08;;;;;;;14.13;4.40;;;;;;;22.40;36.78;99833.31;4483925;32;33474;-57
2021/04/17 08:45:35;;;;;;;12.70;4.18;;;;;;;22.37;36.82;99825.56;4479504;32;35060;-56
2021/04/17 08:48:03;;;;;;;12.93;4.37;;;;;;;22.37;36.81;99828.28;4475036;32;33727;-56
2021/04/17 08:50:32;;;;;;;12.25;4.35;;;;;;;22.36;36.82;99835.63;4483968;31;33857;-56
2021/04/17 08:53:18;;;;;;;9.77;4.07;;;;;;;22.36;36.81;99832.91;4483802;32;33328;-53
2021/04/17 08:55:46;;;;;;;16.55;5.30;;;;;;;22.39;36.83;99827.03;4481856;32;33930;-54
2021/04/17 08:58:21;;;;;;;14.30;3.97;;;;;;;22.36;36.88;99826.63;4483965;32;34070;-55
2021/04/17 09:00:51;;;;;;;11.25;4.07;;;;;;;22.35;36.86;99823.09;4483705;32;33955;-56
2021/04/17 09:03:41;;;;;;;13.88;3.75;;;;;;;22.35;36.88;99816.81;4483972;32;34360;-55
2021/04/17 09:06:25;;;;;;;12.40;4.55;;;;;;;22.38;36.81;99814.50;4482815;32;34888;-58
2021/04/17 09:09:21;;;;;;;8.95;4.37;;;;;;;22.36;36.84;99807.59;4483932;32;34833;-55
2021/04/17 09:11:51;;;;;;;10.40;4.70;;;;;;;22.36;36.87;99813.88;4484021;32;35249;-57
2021/04/17 09:17:01;;;;;;;11.73;4.00;;;;;;;22.33;36.93;99810.75;4483520;32;33479;-55
2021/04/17 09:19:45;;;;;;;9.82;4.40;;;;;;;22.33;36.92;99813.47;4483547;32;33538;-54
2021/04/17 09:22:24;;;;;;;10.18;3.60;;;;;;;22.33;36.95;99817.00;4483849;32;34179;-55
2021/04/17 09:24:52;;;;;;;8.20;3.42;;;;;;;22.33;36.90;99814.28;4483481;32;33122;-57
2021/04/17 09:27:23;;;;;;;13.57;4.10;;;;;;;22.32;36.94;99812.63;4483608;32;33826;-58
2021/04/17 09:30:17;;;;;;;8.05;3.65;;;;;;;22.32;36.99;99815.34;4483820;32;33621;-58
2021/04/17 09:32:56;;;;;;;9.73;3.75;;;;;;;22.33;36.98;99808.84;4483760;32;33751;-57
2021/04/17 09:35:26;;;;;;;18.45;3.67;;;;;;;22.31;36.95;99805.53;4483185;32;33897;-55
2021/04/17 09:38:09;;;;;;;9.40;3.80;;;;;;;22.31;36.97;99804.72;4483338;32;34825;-56
2021/04/17 09:40:48;;;;;;;7.75;3.65;;;;;;;22.32;36.95;99807.19;4467932;32;33770;-56
2021/04/17 09:43:32;;;;;;;10.10;3.85;;;;;;;22.32;36.97;99806.38;4467837;32;33801;-58
2021/04/17 09:46:07;;;;;;;11.52;3.87;;;;;;;22.31;36.98;99805.53;4477906;32;33424;-55
2021/04/17 09:48:38;;;;;;;7.22;3.60;;;;;;;22.30;37.01;99806.59;4483342;32;33859;-57
2021/04/17 09:51:37;;;;;;;10.65;3.50;;;;;;;22.29;37.04;99796.78;4467866;32;34591;-59
2021/04/17 09:54:05;;;;;;;8.52;3.80;;;;;;;22.33;36.95;99799.88;4463228;32;33963;-56
2021/04/17 09:56:41;;;;;;;8.80;4.25;;;;;;;22.29;37.05;99796.78;4473336;32;33678;-54
2021/04/17 09:59:13;;;;;;;8.10;3.15;;;;;;;22.29;37.02;99787.78;4483370;32;33758;-53
2021/04/17 10:01:53;;;;;;;8.82;3.50;;;;;;;22.28;37.09;99795.09;4483485;32;33918;-56
2021/04/17 10:04:21;;;;;;;14.45;3.95;;;;;;;22.29;37.04;99795.91;4483237;32;34127;-58
2021/04/17 10:06:55;;;;;;;8.63;3.67;;;;;;;22.27;37.09;99792.59;4483160;32;34071;-55
2021/04/17 10:09:23;;;;;;;8.68;3.80;;;;;;;22.29;37.07;99790.50;4482893;32;33862;-55
2021/04/17 10:11:50;;;;;;;8.85;3.08;;;;;;;22.28;37.05;99789.66;4483231;32;34236;-58
2021/04/17 10:14:18;;;;;;;9.52;3.70;;;;;;;22.28;37.05;99780.69;4483240;32;33751;-55
2021/04/17 10:16:46;;;;;;;7.40;3.72;;;;;;;22.27;37.08;99782.56;4482930;32;33300;-57
2021/04/17 10:19:15;;;;;;;7.50;3.55;;;;;;;22.28;37.04;99788.81;4482632;32;33782;-58
2021/04/17 10:21:45;;;;;;;6.43;2.97;;;;;;;22.27;37.02;99790.72;4484746;32;34732;-58
2021/04/17 10:24:20;;;;;;;;;;;;;;;22.27;37.06;99789.88;4485006;32;34549;-57
2021/04/17 10:26:55;;;;;;;6.15;3.22;;;;;;;22.37;36.87;99790.22;4482584;32;32957;-57
2021/04/17 10:29:43;;;;;;;8.05;3.37;;;;;;;22.30;37.04;99784.03;4484772;32;33777;-53
2021/04/17 10:32:15;;;;;;;6.72;2.95;;;;;;;22.29;37.04;99791.34;4485156;32;33894;-58
2021/04/17 10:34:49;;;;;;;6.00;3.20;;;;;;;22.25;37.09;99781.13;4484662;32;34560;-57
2021/04/17 10:37:18;;;;;;;7.75;3.28;;;;;;;22.25;37.11;99776.53;4484948;32;33292;-58
2021/04/17 10:40:04;;;;;;;9.48;3.50;;;;;;;22.25;37.11;99786.56;4480917;32;33683;-57
2021/04/17 10:43:05;;;;;;;5.57;3.00;;;;;;;22.27;37.11;99784.44;4469483;32;33569;-57
2021/04/17 10:45:39;;;;;;;7.10;3.15;;;;;;;22.26;37.08;99783.62;4484812;32;33923;-55
2021/04/17 10:48:07;;;;;;;6.22;3.03;;;;;;;22.24;37.10;99777.56;4484676;32;34275;-56
2021/04/17 10:50:38;;;;;;;7.22;3.03;;;;;;;22.25;37.07;99775.69;4482544;32;33651;-57
2021/04/17 10:53:08;;;;;;;8.85;3.55;;;;;;;22.24;37.12;99772.13;4484942;32;33651;-55
2021/04/17 10:55:43;;;;;;;5.43;3.37;;;;;;;22.24;37.10;99777.56;4484974;32;33846;-57
2021/04/17 10:58:22;;;;;;;6.85;3.20;;;;;;;22.24;37.11;99769.41;4469125;32;33740;-60
2021/04/17 11:00:59;;;;;;;6.43;3.15;;;;;;;22.26;37.09;99778.19;4474106;32;33560;-65
2021/04/17 11:03:29;;;;;;;11.30;4.07;;;;;;;22.27;37.07;99768.16;4484883;32;33546;-58
2021/04/17 11:05:57;;;;;;;43.93;5.80;;;;;;;22.26;36.97;99764.59;4484076;32;34507;-57
2021/04/17 11:08:25;;;;;;;31.62;5.78;;;;;;;22.28;37.01;99769.81;4484373;32;33286;-55
2021/04/17 11:10:53;;;;;;;40.63;6.20;;;;;;;22.28;37.20;99773.34;4482533;32;33694;-55
2021/04/17 11:13:28;;;;;;;77.50;10.27;;;;;;;22.32;37.25;99768.31;4482867;32;33885;-58
2021/04/17 11:15:55;;;;;;;67.25;9.38;;;;;;;22.32;37.28;99768.31;4484830;32;34488;-58
2021/04/17 11:18:23;;;;;;;60.63;8.93;;;;;;;22.34;37.13;99768.94;4484441;32;33447;-58
2021/04/17 11:20:52;;;;;;;54.22;8.68;;;;;;;22.36;37.11;99774.97;4484784;32;33719;-58
2021/04/17 11:23:38;;;;;;;42.72;7.40;;;;;;;22.37;37.06;99769.31;4483948;32;34675;-53
2021/04/17 11:26:07;;;;;;;45.12;8.00;;;;;;;22.39;37.09;99780.81;4481656;32;33800;-52
2021/04/17 11:28:35;;;;;;;42.23;7.53;;;;;;;22.37;37.04;99773.91;4484486;32;33225;-55
2021/04/17 11:31:03;;;;;;;42.92;7.35;;;;;;;22.39;36.80;99782.72;4484678;32;34526;-55
2021/04/17 11:33:30;;;;;;;47.70;6.95;;;;;;;22.38;36.81;99776.44;4484259;32;34344;-57
2021/04/17 11:35:59;;;;;;;33.33;6.25;;;;;;;22.37;36.75;99774.75;4484164;32;33836;-54
2021/04/17 11:38:27;;;;;;;30.80;6.30;;;;;;;22.36;36.77;99774.97;4476524;32;33563;-55
2021/04/17 11:40:54;;;;;;;36.90;6.72;;;;;;;22.36;36.68;99781.25;4473089;32;34549;-56
2021/04/17 11:43:22;;;;;;;39.65;7.03;;;;;;;22.35;36.63;99781.47;4468848;32;33819;-53
2021/04/17 11:45:49;;;;;;;37.63;6.10;;;;;;;22.34;36.68;99766.22;4476886;32;33837;-54
2021/04/17 11:48:17;;;;;;;33.60;6.32;;;;;;;22.34;36.61;99760.78;4482787;32;33272;-57
2021/04/17 11:50:44;;;;;;;39.00;6.37;;;;;;;22.33;36.70;99746.34;4481157;32;33509;-56